sensor_id;sensor_type;location;lat;lon;timestamp;pressure;altitude;pressure_sealevel;temperature;humidity
42247;BME280;27913;42.722;23.268;2023-08-24T00:03:20;95060.69;;;24.66;61.15
42247;BME280;27913;42.722;23.268;2023-08-24T00:05:47;95054.28;;;24.61;61.44
42247;BME280;27913;42.722;23.268;2023-08-24T00:08:12;95131.50;;;25.12;61.44
42247;BME280;27913;42.722;23.268;2023-08-24T00:10:38;95038.16;;;24.61;61.38
42247;BME280;27913;42.722;23.268;2023-08-24T00:13:04;94986.44;;;24.30;60.88
42247;BME280;27913;42.722;23.268;2023-08-24T00:15:29;95009.47;;;24.41;61.27
42247;BME280;27913;42.722;23.268;2023-08-24T00:17:55;95072.97;;;24.88;61.16
42247;BME280;27913;42.722;23.268;2023-08-24T00:20:21;95066.88;;;24.71;61.89
42247;BME280;27913;42.722;23.268;2023-08-24T00:22:48;95034.41;;;24.57;62.02
42247;BME280;27913;42.722;23.268;2023-08-24T00:25:13;95130.41;;;25.13;62.18
42247;BME280;27913;42.722;23.268;2023-08-24T00:27:40;95011.94;;;24.27;62.36
42247;BME280;27913;42.722;23.268;2023-08-24T00:30:07;95125.66;;;24.99;62.98
42247;BME280;27913;42.722;23.268;2023-08-24T00:32:33;95131.06;;;24.94;63.16
42247;BME280;27913;42.722;23.268;2023-08-24T00:35:03;95093.31;;;24.38;63.86
42247;BME280;27913;42.722;23.268;2023-08-24T00:37:31;95138.69;;;24.50;64.02
42247;BME280;27913;42.722;23.268;2023-08-24T00:39:57;95139.00;;;24.33;64.61
42247;BME280;27913;42.722;23.268;2023-08-24T00:42:22;95039.69;;;23.60;65.00
42247;BME280;27913;42.722;23.268;2023-08-24T00:44:48;95112.44;;;24.10;64.91
42247;BME280;27913;42.722;23.268;2023-08-24T00:47:15;95129.09;;;24.28;64.94
42247;BME280;27913;42.722;23.268;2023-08-24T00:49:41;95122.63;;;24.24;64.92
42247;BME280;27913;42.722;23.268;2023-08-24T00:52:07;95137.66;;;24.35;65.27
42247;BME280;27913;42.722;23.268;2023-08-24T00:54:32;95093.91;;;24.04;65.17
42247;BME280;27913;42.722;23.268;2023-08-24T00:56:58;95134.97;;;24.25;65.13
42247;BME280;27913;42.722;23.268;2023-08-24T00:59:23;95136.06;;;24.03;65.42
42247;BME280;27913;42.722;23.268;2023-08-24T01:01:50;95081.81;;;23.38;66.42
42247;BME280;27913;42.722;23.268;2023-08-24T01:04:16;95018.72;;;22.84;66.89
42247;BME280;27913;42.722;23.268;2023-08-24T01:06:41;95050.34;;;22.82;67.02
42247;BME280;27913;42.722;23.268;2023-08-24T01:09:07;95143.31;;;23.50;67.13
42247;BME280;27913;42.722;23.268;2023-08-24T01:12:04;95060.31;;;23.07;67.55
42247;BME280;27913;42.722;23.268;2023-08-24T01:17:10;95133.91;;;23.63;66.70
42247;BME280;27913;42.722;23.268;2023-08-24T01:19:47;95135.81;;;23.63;66.87
42247;BME280;27913;42.722;23.268;2023-08-24T01:22:34;95119.72;;;23.68;66.28
42247;BME280;27913;42.722;23.268;2023-08-24T01:25:16;95124.25;;;23.73;66.14
42247;BME280;27913;42.722;23.268;2023-08-24T01:27:43;95037.81;;;23.29;65.81
42247;BME280;27913;42.722;23.268;2023-08-24T01:30:09;95134.44;;;23.86;65.75
42247;BME280;27913;42.722;23.268;2023-08-24T01:32:36;95087.50;;;23.58;65.79
42247;BME280;27913;42.722;23.268;2023-08-24T01:35:04;95129.34;;;23.74;66.23
42247;BME280;27913;42.722;23.268;2023-08-24T01:37:30;95017.91;;;22.78;66.73
42247;BME280;27913;42.722;23.268;2023-08-24T01:43:03;95025.78;;;22.36;68.82
42247;BME280;27913;42.722;23.268;2023-08-24T01:45:32;95140.50;;;23.03;69.31
42247;BME280;27913;42.722;23.268;2023-08-24T01:48:02;94998.31;;;22.03;69.28
42247;BME280;27913;42.722;23.268;2023-08-24T01:50:29;95072.72;;;22.60;69.82
42247;BME280;27913;42.722;23.268;2023-08-24T01:52:55;95149.06;;;23.11;70.01
42247;BME280;27913;42.722;23.268;2023-08-24T01:55:21;95153.41;;;23.17;69.62
42247;BME280;27913;42.722;23.268;2023-08-24T01:57:48;95096.44;;;22.84;69.48
42247;BME280;27913;42.722;23.268;2023-08-24T02:00:13;95135.16;;;23.19;69.36
42247;BME280;27913;42.722;23.268;2023-08-24T02:02:39;95123.06;;;23.11;69.38
42247;BME280;27913;42.722;23.268;2023-08-24T02:05:05;95027.44;;;22.53;69.20
42247;BME280;27913;42.722;23.268;2023-08-24T02:07:31;95079.25;;;22.74;69.67
42247;BME280;27913;42.722;23.268;2023-08-24T02:09:56;95147.94;;;22.91;70.43
42247;BME280;27913;42.722;23.268;2023-08-24T02:12:22;95065.59;;;22.17;71.17
42247;BME280;27913;42.722;23.268;2023-08-24T02:14:47;95003.66;;;21.65;71.85
42247;BME280;27913;42.722;23.268;2023-08-24T02:17:13;95143.38;;;22.38;72.86
42247;BME280;27913;42.722;23.268;2023-08-24T02:19:39;95096.81;;;22.01;72.93
42247;BME280;27913;42.722;23.268;2023-08-24T02:22:06;95049.69;;;21.67;73.28
42247;BME280;27913;42.722;23.268;2023-08-24T02:24:32;95156.50;;;22.39;73.21
42247;BME280;27913;42.722;23.268;2023-08-24T02:26:58;94999.88;;;21.55;72.85
42247;BME280;27913;42.722;23.268;2023-08-24T02:29:23;95153.69;;;22.62;72.78
42247;BME280;27913;42.722;23.268;2023-08-24T02:31:49;95143.56;;;22.74;71.94
42247;BME280;27913;42.722;23.268;2023-08-24T02:34:16;95128.88;;;22.82;71.81
42247;BME280;27913;42.722;23.268;2023-08-24T02:36:41;95127.84;;;22.93;71.34
42247;BME280;27913;42.722;23.268;2023-08-24T02:39:07;95022.78;;;22.27;71.27
42247;BME280;27913;42.722;23.268;2023-08-24T02:41:34;95126.56;;;23.07;70.78
42247;BME280;27913;42.722;23.268;2023-08-24T02:43:59;95138.63;;;23.14;70.34
42247;BME280;27913;42.722;23.268;2023-08-24T02:46:25;95109.09;;;22.99;70.34
42247;BME280;27913;42.722;23.268;2023-08-24T02:48:50;95139.97;;;23.17;70.04
42247;BME280;27913;42.722;23.268;2023-08-24T02:51:16;95081.97;;;22.85;69.63
42247;BME280;27913;42.722;23.268;2023-08-24T02:53:41;95139.16;;;23.16;69.29
42247;BME280;27913;42.722;23.268;2023-08-24T02:56:07;95142.13;;;23.20;69.39
42247;BME280;27913;42.722;23.268;2023-08-24T02:58:32;95149.59;;;23.08;69.70
42247;BME280;27913;42.722;23.268;2023-08-24T03:00:58;95152.69;;;22.68;71.25
42247;BME280;27913;42.722;23.268;2023-08-24T03:03:24;95147.66;;;22.39;71.90
42247;BME280;27913;42.722;23.268;2023-08-24T03:06:00;95128.97;;;22.06;72.91
42247;BME280;27913;42.722;23.268;2023-08-24T03:08:26;95149.88;;;22.09;73.33
42247;BME280;27913;42.722;23.268;2023-08-24T03:10:51;95144.75;;;22.02;73.88
42247;BME280;27913;42.722;23.268;2023-08-24T03:13:17;95153.22;;;21.89;74.01
42247;BME280;27913;42.722;23.268;2023-08-24T03:15:43;95164.16;;;21.59;75.40
42247;BME280;27913;42.722;23.268;2023-08-24T03:18:12;95158.44;;;21.23;77.02
42247;BME280;27913;42.722;23.268;2023-08-24T03:20:39;95005.63;;;20.09;77.79
42247;BME280;27913;42.722;23.268;2023-08-24T03:23:05;95146.56;;;20.91;77.89
42247;BME280;27913;42.722;23.268;2023-08-24T03:25:34;95162.53;;;21.03;78.12
42247;BME280;27913;42.722;23.268;2023-08-24T03:28:01;95045.63;;;20.26;78.37
42247;BME280;27913;42.722;23.268;2023-08-24T03:30:27;95146.41;;;20.98;78.25
42247;BME280;27913;42.722;23.268;2023-08-24T03:32:52;95155.00;;;21.22;78.00
42247;BME280;27913;42.722;23.268;2023-08-24T03:35:18;95161.78;;;21.35;77.02
42247;BME280;27913;42.722;23.268;2023-08-24T03:37:43;95064.69;;;20.80;76.51
42247;BME280;27913;42.722;23.268;2023-08-24T03:40:09;95173.25;;;21.31;76.96
42247;BME280;27913;42.722;23.268;2023-08-24T03:42:35;95180.09;;;21.21;77.22
42247;BME280;27913;42.722;23.268;2023-08-24T03:45:00;95184.94;;;21.24;77.38
42247;BME280;27913;42.722;23.268;2023-08-24T03:47:26;95020.16;;;20.40;76.82
42247;BME280;27913;42.722;23.268;2023-08-24T03:49:51;95129.91;;;21.29;75.94
42247;BME280;27913;42.722;23.268;2023-08-24T03:52:17;95186.78;;;21.74;75.55
42247;BME280;27913;42.722;23.268;2023-08-24T03:54:42;95130.41;;;21.53;74.99
42247;BME280;27913;42.722;23.268;2023-08-24T03:57:08;95183.28;;;22.01;74.33
42247;BME280;27913;42.722;23.268;2023-08-24T03:59:33;95183.41;;;22.17;73.56
42247;BME280;27913;42.722;23.268;2023-08-24T04:01:59;95179.69;;;22.23;73.58
42247;BME280;27913;42.722;23.268;2023-08-24T04:04:27;95025.63;;;21.29;72.94
42247;BME280;27913;42.722;23.268;2023-08-24T04:06:53;95180.63;;;22.44;72.40
42247;BME280;27913;42.722;23.268;2023-08-24T04:09:19;95182.56;;;22.54;72.19
42247;BME280;27913;42.722;23.268;2023-08-24T04:11:44;95181.88;;;22.64;71.63
42247;BME280;27913;42.722;23.268;2023-08-24T04:14:09;95123.78;;;22.32;71.64
42247;BME280;27913;42.722;23.268;2023-08-24T04:16:35;95074.38;;;22.12;71.00
42247;BME280;27913;42.722;23.268;2023-08-24T04:19:01;95127.09;;;22.50;70.76
42247;BME280;27913;42.722;23.268;2023-08-24T04:21:26;95180.63;;;22.93;70.38
42247;BME280;27913;42.722;23.268;2023-08-24T04:23:52;95153.47;;;22.74;70.40
42247;BME280;27913;42.722;23.268;2023-08-24T04:26:18;95191.09;;;22.89;70.44
42247;BME280;27913;42.722;23.268;2023-08-24T04:28:43;95109.72;;;22.09;70.78
42247;BME280;27913;42.722;23.268;2023-08-24T04:31:09;95137.59;;;22.13;71.41
42247;BME280;27913;42.722;23.268;2023-08-24T04:33:34;95147.44;;;22.07;71.85
42247;BME280;27913;42.722;23.268;2023-08-24T04:36:01;95194.91;;;22.17;72.86
42247;BME280;27913;42.722;23.268;2023-08-24T04:38:28;95192.00;;;21.86;73.55
42247;BME280;27913;42.722;23.268;2023-08-24T04:40:55;95162.91;;;21.67;74.17
42247;BME280;27913;42.722;23.268;2023-08-24T04:43:22;95089.59;;;21.35;73.91
42247;BME280;27913;42.722;23.268;2023-08-24T04:45:49;95179.34;;;22.14;73.49
42247;BME280;27913;42.722;23.268;2023-08-24T04:48:21;95186.72;;;22.29;73.08
42247;BME280;27913;42.722;23.268;2023-08-24T04:50:47;95160.41;;;22.26;72.87
42247;BME280;27913;42.722;23.268;2023-08-24T04:53:18;95140.63;;;22.27;72.73
42247;BME280;27913;42.722;23.268;2023-08-24T04:55:44;95112.44;;;22.19;72.50
42247;BME280;27913;42.722;23.268;2023-08-24T04:58:10;95184.03;;;22.73;71.95
42247;BME280;27913;42.722;23.268;2023-08-24T05:00:37;95160.81;;;22.45;71.53
42247;BME280;27913;42.722;23.268;2023-08-24T05:03:04;95198.44;;;22.61;71.77
42247;BME280;27913;42.722;23.268;2023-08-24T05:05:30;95202.34;;;22.43;72.34
42247;BME280;27913;42.722;23.268;2023-08-24T05:07:57;95071.75;;;21.46;73.26
42247;BME280;27913;42.722;23.268;2023-08-24T05:10:23;95075.69;;;21.39;73.84
42247;BME280;27913;42.722;23.268;2023-08-24T05:12:48;95198.38;;;22.13;74.19
42247;BME280;27913;42.722;23.268;2023-08-24T05:15:14;95180.97;;;21.82;74.24
42247;BME280;27913;42.722;23.268;2023-08-24T05:17:40;95208.31;;;21.84;74.60
42247;BME280;27913;42.722;23.268;2023-08-24T05:20:09;95183.91;;;21.53;75.70
42247;BME280;27913;42.722;23.268;2023-08-24T05:22:40;95205.97;;;21.66;76.10
42247;BME280;27913;42.722;23.268;2023-08-24T05:25:06;95209.06;;;21.80;76.12
42247;BME280;27913;42.722;23.268;2023-08-24T05:27:32;95208.31;;;21.84;75.03
42247;BME280;27913;42.722;23.268;2023-08-24T05:29:57;95125.38;;;21.29;75.60
42247;BME280;27913;42.722;23.268;2023-08-24T05:32:23;95221.13;;;21.82;74.59
42247;BME280;27913;42.722;23.268;2023-08-24T05:34:48;95229.59;;;21.74;74.64
42247;BME280;27913;42.722;23.268;2023-08-24T05:37:14;95225.31;;;21.73;75.27
42247;BME280;27913;42.722;23.268;2023-08-24T05:39:39;95139.59;;;21.35;75.70
42247;BME280;27913;42.722;23.268;2023-08-24T05:42:05;95057.53;;;21.08;74.95
42247;BME280;27913;42.722;23.268;2023-08-24T05:44:31;95220.50;;;22.36;74.32
42247;BME280;27913;42.722;23.268;2023-08-24T05:46:56;95062.16;;;21.18;73.07
42247;BME280;27913;42.722;23.268;2023-08-24T05:49:22;95235.47;;;21.99;74.64
42247;BME280;27913;42.722;23.268;2023-08-24T05:51:50;95235.66;;;21.64;76.84
42247;BME280;27913;42.722;23.268;2023-08-24T05:54:16;95236.22;;;21.44;77.88
42247;BME280;27913;42.722;23.268;2023-08-24T05:56:46;95233.66;;;21.54;78.69
42247;BME280;27913;42.722;23.268;2023-08-24T05:59:12;95230.53;;;21.85;77.78
42247;BME280;27913;42.722;23.268;2023-08-24T06:01:38;95217.38;;;22.11;76.30
42247;BME280;27913;42.722;23.268;2023-08-24T06:04:08;95192.81;;;22.25;75.18
42247;BME280;27913;42.722;23.268;2023-08-24T06:06:34;95224.47;;;22.66;73.51
42247;BME280;27913;42.722;23.268;2023-08-24T06:09:00;95232.31;;;22.78;72.16
42247;BME280;27913;42.722;23.268;2023-08-24T06:11:25;95236.72;;;22.95;71.38
42247;BME280;27913;42.722;23.268;2023-08-24T06:13:51;95107.97;;;22.30;70.48
42247;BME280;27913;42.722;23.268;2023-08-24T06:16:20;95179.59;;;22.94;69.12
42247;BME280;27913;42.722;23.268;2023-08-24T06:18:45;95209.72;;;23.22;68.42
42247;BME280;27913;42.722;23.268;2023-08-24T06:21:11;95232.38;;;23.47;68.86
42247;BME280;27913;42.722;23.268;2023-08-24T06:23:38;95174.06;;;23.27;67.96
42247;BME280;27913;42.722;23.268;2023-08-24T06:26:03;95231.59;;;23.62;67.46
42247;BME280;27913;42.722;23.268;2023-08-24T06:28:30;95147.75;;;23.19;66.79
42247;BME280;27913;42.722;23.268;2023-08-24T06:30:55;95231.34;;;23.74;66.89
42247;BME280;27913;42.722;23.268;2023-08-24T06:33:21;95235.94;;;23.84;66.84
42247;BME280;27913;42.722;23.268;2023-08-24T06:35:52;95230.31;;;23.91;66.52
42247;BME280;27913;42.722;23.268;2023-08-24T06:38:17;95170.16;;;23.66;65.83
42247;BME280;27913;42.722;23.268;2023-08-24T06:40:43;95237.63;;;24.22;65.67
42247;BME280;27913;42.722;23.268;2023-08-24T06:43:08;95232.25;;;24.27;64.08
42247;BME280;27913;42.722;23.268;2023-08-24T06:45:34;95235.47;;;24.19;64.12
42247;BME280;27913;42.722;23.268;2023-08-24T06:47:59;95171.53;;;23.89;64.53
42247;BME280;27913;42.722;23.268;2023-08-24T06:50:24;95228.22;;;24.35;64.72
42247;BME280;27913;42.722;23.268;2023-08-24T06:52:50;95192.75;;;24.28;64.56
42247;BME280;27913;42.722;23.268;2023-08-24T06:55:15;95220.69;;;24.53;64.78
42247;BME280;27913;42.722;23.268;2023-08-24T06:57:41;95159.69;;;24.27;65.16
42247;BME280;27913;42.722;23.268;2023-08-24T07:00:07;95212.28;;;24.75;64.98
42247;BME280;27913;42.722;23.268;2023-08-24T07:02:38;95214.69;;;24.87;64.23
42247;BME280;27913;42.722;23.268;2023-08-24T07:05:03;95181.34;;;24.78;63.79
42247;BME280;27913;42.722;23.268;2023-08-24T07:07:34;95216.00;;;25.11;63.02
42247;BME280;27913;42.722;23.268;2023-08-24T07:10:00;95190.75;;;24.96;62.81
42247;BME280;27913;42.722;23.268;2023-08-24T07:12:30;95185.41;;;24.80;62.43
42247;BME280;27913;42.722;23.268;2023-08-24T07:14:55;95213.88;;;24.92;62.85
42247;BME280;27913;42.722;23.268;2023-08-24T07:17:21;95121.53;;;24.35;62.73
42247;BME280;27913;42.722;23.268;2023-08-24T07:19:46;95207.16;;;25.00;63.10
42247;BME280;27913;42.722;23.268;2023-08-24T07:22:12;95209.00;;;25.04;63.11
42247;BME280;27913;42.722;23.268;2023-08-24T07:24:37;95202.81;;;25.09;63.02
42247;BME280;27913;42.722;23.268;2023-08-24T07:27:03;95121.47;;;24.67;62.31
42247;BME280;27913;42.722;23.268;2023-08-24T07:29:29;95202.97;;;25.33;61.98
42247;BME280;27913;42.722;23.268;2023-08-24T07:31:54;95161.59;;;25.19;61.71
42247;BME280;27913;42.722;23.268;2023-08-24T07:34:20;95105.47;;;25.02;61.39
42247;BME280;27913;42.722;23.268;2023-08-24T07:36:48;95196.88;;;25.63;60.66
42247;BME280;27913;42.722;23.268;2023-08-24T07:39:14;95202.19;;;25.78;59.83
42247;BME280;27913;42.722;23.268;2023-08-24T07:41:44;95175.34;;;25.68;59.64
42247;BME280;27913;42.722;23.268;2023-08-24T07:44:09;95074.97;;;25.17;59.05
42247;BME280;27913;42.722;23.268;2023-08-24T07:46:35;95195.59;;;26.00;57.34
42247;BME280;27913;42.722;23.268;2023-08-24T07:49:00;95136.84;;;25.67;57.57
42247;BME280;27913;42.722;23.268;2023-08-24T07:51:26;95192.78;;;26.16;57.98
42247;BME280;27913;42.722;23.268;2023-08-24T07:53:52;95176.59;;;26.16;57.71
42247;BME280;27913;42.722;23.268;2023-08-24T07:56:18;95186.69;;;26.35;56.48
42247;BME280;27913;42.722;23.268;2023-08-24T07:58:44;95187.47;;;26.40;56.30
42247;BME280;27913;42.722;23.268;2023-08-24T08:01:11;95190.59;;;26.53;56.09
42247;BME280;27913;42.722;23.268;2023-08-24T08:03:36;95089.72;;;26.00;56.04
42247;BME280;27913;42.722;23.268;2023-08-24T08:06:02;95133.59;;;26.35;55.71
42247;BME280;27913;42.722;23.268;2023-08-24T08:08:28;95127.63;;;26.38;54.51
42247;BME280;27913;42.722;23.268;2023-08-24T08:11:01;95190.72;;;26.92;54.42
42247;BME280;27913;42.722;23.268;2023-08-24T08:13:30;95122.84;;;26.60;55.67
42247;BME280;27913;42.722;23.268;2023-08-24T08:16:04;95168.56;;;26.95;53.83
42247;BME280;27913;42.722;23.268;2023-08-24T08:18:31;95086.22;;;26.53;51.51
42247;BME280;27913;42.722;23.268;2023-08-24T08:20:57;95191.19;;;27.23;50.31
42247;BME280;27913;42.722;23.268;2023-08-24T08:23:23;95187.38;;;27.24;51.60
42247;BME280;27913;42.722;23.268;2023-08-24T08:25:48;95188.41;;;27.29;51.72
42247;BME280;27913;42.722;23.268;2023-08-24T08:28:14;95122.16;;;26.93;51.95
42247;BME280;27913;42.722;23.268;2023-08-24T08:30:39;95187.97;;;27.41;51.98
42247;BME280;27913;42.722;23.268;2023-08-24T08:33:05;95176.81;;;27.47;51.27
42247;BME280;27913;42.722;23.268;2023-08-24T08:35:30;95177.25;;;27.55;51.00
42247;BME280;27913;42.722;23.268;2023-08-24T08:37:56;95175.56;;;27.59;51.56
42247;BME280;27913;42.722;23.268;2023-08-24T08:40:21;95096.22;;;27.21;51.18
42247;BME280;27913;42.722;23.268;2023-08-24T08:42:55;95150.88;;;27.66;50.26
42247;BME280;27913;42.722;23.268;2023-08-24T08:45:25;95170.03;;;27.89;49.04
42247;BME280;27913;42.722;23.268;2023-08-24T08:47:51;95167.16;;;27.99;49.28
42247;BME280;27913;42.722;23.268;2023-08-24T08:50:18;95164.09;;;28.06;48.61
42247;BME280;27913;42.722;23.268;2023-08-24T08:52:45;95093.84;;;27.72;48.69
42247;BME280;27913;42.722;23.268;2023-08-24T08:55:11;95161.66;;;28.24;47.95
42247;BME280;27913;42.722;23.268;2023-08-24T08:57:36;95064.94;;;27.73;48.43
42247;BME280;27913;42.722;23.268;2023-08-24T09:00:04;95159.03;;;28.32;49.07
42247;BME280;27913;42.722;23.268;2023-08-24T09:02:31;95149.56;;;28.35;48.57
42247;BME280;27913;42.722;23.268;2023-08-24T09:04:59;95146.78;;;28.40;47.99
42247;BME280;27913;42.722;23.268;2023-08-24T09:07:25;95042.84;;;27.85;48.63
42247;BME280;27913;42.722;23.268;2023-08-24T09:09:50;95136.66;;;28.46;49.42
42247;BME280;27913;42.722;23.268;2023-08-24T09:12:16;95136.06;;;28.49;49.11
42247;BME280;27913;42.722;23.268;2023-08-24T09:14:41;95068.81;;;28.14;48.00
42247;BME280;27913;42.722;23.268;2023-08-24T09:17:07;95084.16;;;28.33;48.66
42247;BME280;27913;42.722;23.268;2023-08-24T09:19:33;95118.84;;;28.59;48.67
42247;BME280;27913;42.722;23.268;2023-08-24T09:22:03;95116.84;;;28.65;48.60
42247;BME280;27913;42.722;23.268;2023-08-24T09:24:33;95064.72;;;28.31;48.93
42247;BME280;27913;42.722;23.268;2023-08-24T09:27:00;95109.03;;;28.63;48.59
42247;BME280;27913;42.722;23.268;2023-08-24T09:29:25;95016.56;;;28.05;48.82
42247;BME280;27913;42.722;23.268;2023-08-24T09:31:51;95084.78;;;28.58;48.60
42247;BME280;27913;42.722;23.268;2023-08-24T09:34:20;95098.19;;;28.77;47.26
42247;BME280;27913;42.722;23.268;2023-08-24T09:36:46;95026.91;;;28.45;46.71
42247;BME280;27913;42.722;23.268;2023-08-24T09:39:16;95093.69;;;29.01;46.88
42247;BME280;27913;42.722;23.268;2023-08-24T09:41:44;95098.97;;;29.20;45.78
42247;BME280;27913;42.722;23.268;2023-08-24T09:44:10;95049.88;;;29.13;45.70
42247;BME280;27913;42.722;23.268;2023-08-24T09:46:37;95038.19;;;29.26;44.57
42247;BME280;27913;42.722;23.268;2023-08-24T09:49:08;95086.16;;;29.72;44.15
42247;BME280;27913;42.722;23.268;2023-08-24T09:51:34;95077.66;;;29.87;43.61
42247;BME280;27913;42.722;23.268;2023-08-24T09:54:04;95026.56;;;29.72;43.12
42247;BME280;27913;42.722;23.268;2023-08-24T09:56:34;95059.94;;;30.13;42.35
42247;BME280;27913;42.722;23.268;2023-08-24T09:59:14;94949.19;;;29.57;41.91
42247;BME280;27913;42.722;23.268;2023-08-24T10:01:45;95077.50;;;30.56;41.40
42247;BME280;27913;42.722;23.268;2023-08-24T10:04:13;95033.13;;;30.43;40.44
42247;BME280;27913;42.722;23.268;2023-08-24T10:06:40;95072.03;;;30.88;40.51
42247;BME280;27913;42.722;23.268;2023-08-24T10:09:08;95044.91;;;30.97;39.66
42247;BME280;27913;42.722;23.268;2023-08-24T10:14:30;95062.16;;;31.54;38.46
42247;BME280;27913;42.722;23.268;2023-08-24T10:16:56;95066.00;;;31.62;37.55
42247;BME280;27913;42.722;23.268;2023-08-24T10:19:24;94997.63;;;31.42;37.01
42247;BME280;27913;42.722;23.268;2023-08-24T10:21:50;95062.47;;;31.79;37.35
42247;BME280;27913;42.722;23.268;2023-08-24T10:24:18;95035.47;;;31.74;36.49
42247;BME280;27913;42.722;23.268;2023-08-24T10:26:46;95063.72;;;32.00;36.70
42247;BME280;27913;42.722;23.268;2023-08-24T10:29:13;94985.19;;;31.50;36.02
42247;BME280;27913;42.722;23.268;2023-08-24T10:31:40;94926.38;;;31.19;36.25
42247;BME280;27913;42.722;23.268;2023-08-24T10:34:07;95037.50;;;31.86;36.62
42247;BME280;27913;42.722;23.268;2023-08-24T10:36:33;95040.75;;;31.70;36.34
42247;BME280;27913;42.722;23.268;2023-08-24T10:39:02;94944.94;;;30.81;37.09
42247;BME280;27913;42.722;23.268;2023-08-24T10:41:51;95064.41;;;31.52;37.08
42247;BME280;27913;42.722;23.268;2023-08-24T10:44:44;95092.34;;;31.26;37.21
42247;BME280;27913;42.722;23.268;2023-08-24T10:47:15;95054.97;;;30.38;41.53
42247;BME280;27913;42.722;23.268;2023-08-24T10:49:42;95028.94;;;29.73;43.16
42247;BME280;27913;42.722;23.268;2023-08-24T10:54:49;95007.84;;;29.15;45.48
42247;BME280;27913;42.722;23.268;2023-08-24T10:57:20;95034.22;;;29.33;45.84
42247;BME280;27913;42.722;23.268;2023-08-24T10:59:56;95062.81;;;29.39;46.18
42247;BME280;27913;42.722;23.268;2023-08-24T11:02:23;94934.97;;;28.45;45.56
42247;BME280;27913;42.722;23.268;2023-08-24T11:05:15;95067.00;;;29.08;41.47
42247;BME280;27913;42.722;23.268;2023-08-24T11:07:57;95039.00;;;28.62;42.33
42247;BME280;27913;42.722;23.268;2023-08-24T11:13:16;95058.97;;;28.38;43.79
42247;BME280;27913;42.722;23.268;2023-08-24T11:15:43;95033.97;;;27.98;43.11
42247;BME280;27913;42.722;23.268;2023-08-24T11:21:04;94955.88;;;27.21;43.53
42247;BME280;27913;42.722;23.268;2023-08-24T11:23:31;95060.66;;;27.86;43.56
42247;BME280;27913;42.722;23.268;2023-08-24T11:26:00;95060.06;;;27.89;44.22
42247;BME280;27913;42.722;23.268;2023-08-24T11:28:27;95017.56;;;27.61;45.17
42247;BME280;27913;42.722;23.268;2023-08-24T11:30:57;95022.06;;;27.66;45.58
42247;BME280;27913;42.722;23.268;2023-08-24T11:33:33;94997.59;;;27.43;46.31
42247;BME280;27913;42.722;23.268;2023-08-24T11:36:00;95068.22;;;27.70;47.40
42247;BME280;27913;42.722;23.268;2023-08-24T11:38:36;95064.97;;;27.68;47.21
42247;BME280;27913;42.722;23.268;2023-08-24T11:41:13;95068.94;;;27.76;47.92
42247;BME280;27913;42.722;23.268;2023-08-24T11:43:39;95038.97;;;27.58;49.78
42247;BME280;27913;42.722;23.268;2023-08-24T11:46:05;95025.53;;;27.53;50.39
42247;BME280;27913;42.722;23.268;2023-08-24T11:48:31;95001.75;;;27.21;51.98
42247;BME280;27913;42.722;23.268;2023-08-24T11:50:59;95077.47;;;27.30;54.85
42247;BME280;27913;42.722;23.268;2023-08-24T11:53:25;94947.22;;;26.47;55.32
42247;BME280;27913;42.722;23.268;2023-08-24T11:55:55;95060.09;;;27.17;55.50
42247;BME280;27913;42.722;23.268;2023-08-24T11:58:20;95060.91;;;27.18;55.65
42247;BME280;27913;42.722;23.268;2023-08-24T12:00:46;94933.06;;;26.36;56.19
42247;BME280;27913;42.722;23.268;2023-08-24T12:03:13;94919.53;;;26.41;56.08
42247;BME280;27913;42.722;23.268;2023-08-24T12:05:39;95021.63;;;27.25;56.16
42247;BME280;27913;42.722;23.268;2023-08-24T12:08:05;95013.47;;;27.11;56.58
42247;BME280;27913;42.722;23.268;2023-08-24T12:10:31;95039.44;;;27.27;57.46
42247;BME280;27913;42.722;23.268;2023-08-24T12:13:06;94954.44;;;26.71;57.86
42247;BME280;27913;42.722;23.268;2023-08-24T12:15:35;95020.78;;;27.30;57.67
42247;BME280;27913;42.722;23.268;2023-08-24T12:18:11;95021.22;;;27.52;57.40
42247;BME280;27913;42.722;23.268;2023-08-24T12:20:37;95009.53;;;27.76;56.65
42247;BME280;27913;42.722;23.268;2023-08-24T12:23:03;94888.88;;;27.09;56.04
42247;BME280;27913;42.722;23.268;2023-08-24T12:25:29;94917.94;;;27.46;55.30
42247;BME280;27913;42.722;23.268;2023-08-24T12:28:14;94974.13;;;27.91;54.08
42247;BME280;27913;42.722;23.268;2023-08-24T12:30:52;94890.34;;;27.49;52.76
42247;BME280;27913;42.722;23.268;2023-08-24T12:33:22;95021.19;;;28.46;52.27
42247;BME280;27913;42.722;23.268;2023-08-24T12:35:47;94932.38;;;27.83;53.13
42247;BME280;27913;42.722;23.268;2023-08-24T12:38:13;94987.22;;;27.98;53.64
42247;BME280;27913;42.722;23.268;2023-08-24T12:40:39;95038.91;;;28.25;53.83
42247;BME280;27913;42.722;23.268;2023-08-24T12:43:04;95011.66;;;28.21;52.67
42247;BME280;27913;42.722;23.268;2023-08-24T12:45:31;94922.28;;;27.75;52.28
42247;BME280;27913;42.722;23.268;2023-08-24T12:47:56;95005.16;;;28.22;52.18
42247;BME280;27913;42.722;23.268;2023-08-24T12:50:22;95036.94;;;28.44;53.12
42247;BME280;27913;42.722;23.268;2023-08-24T12:52:47;95031.13;;;28.51;53.53
42247;BME280;27913;42.722;23.268;2023-08-24T12:55:13;95036.31;;;28.62;52.88
42247;BME280;27913;42.722;23.268;2023-08-24T12:57:38;95000.66;;;28.45;51.08
42247;BME280;27913;42.722;23.268;2023-08-24T13:00:04;95022.16;;;28.79;50.16
42247;BME280;27913;42.722;23.268;2023-08-24T13:02:31;95048.34;;;29.06;48.46
42247;BME280;27913;42.722;23.268;2023-08-24T13:04:56;95003.47;;;28.91;47.91
42247;BME280;27913;42.722;23.268;2023-08-24T13:07:26;95055.00;;;29.37;47.77
42247;BME280;27913;42.722;23.268;2023-08-24T13:09:51;95020.22;;;29.30;48.18